Time;durP1;ratioP1;P1;durP2;ratioP2;P2;SDS_P1;SDS_P2;PMS_P1;PMS_P2;Temp;Humidity;BMP_temperature;BMP_pressure;BME280_temperature;BME280_humidity;BME280_pressure;Samples;Min_cycle;Max_cycle;Signal;HPM_P1;HPM_P2
2023/08/22 00:00:37;;;;;;;1.55;1.55;;;25.50;78.90;;;;;;5082570;28;43521;-69
2023/08/22 00:03:05;;;;;;;1.40;1.40;;;25.50;79.00;;;;;;5085354;28;43812;-70
2023/08/22 00:05:33;;;;;;;1.40;1.40;;;25.40;79.00;;;;;;5087190;27;43467;-70
2023/08/22 00:08:05;;;;;;;1.40;1.40;;;25.40;79.10;;;;;;5085588;28;43451;-69
2023/08/22 00:10:33;;;;;;;1.63;1.60;;;25.40;79.00;;;;;;5085354;28;43362;-71
2023/08/22 00:13:01;;;;;;;1.67;1.67;;;25.50;78.80;;;;;;5082812;28;43606;-70
2023/08/22 00:15:30;;;;;;;1.30;1.30;;;25.60;78.30;;;;;;5085286;28;43443;-69
2023/08/22 00:17:58;;;;;;;1.30;1.30;;;25.70;78.00;;;;;;5085668;28;43771;-71
2023/08/22 00:20:27;;;;;;;1.30;1.30;;;25.70;77.90;;;;;;5086863;28;44321;-70
2023/08/22 00:22:55;;;;;;;1.40;1.40;;;25.70;78.20;;;;;;5082295;28;43610;-70
2023/08/22 00:25:23;;;;;;;1.50;1.50;;;25.60;78.30;;;;;;5086954;28;43881;-71
2023/08/22 00:27:51;;;;;;;1.50;1.50;;;25.60;78.50;;;;;;5085673;28;43379;-70
2023/08/22 00:30:19;;;;;;;1.30;1.30;;;25.60;78.50;;;;;;5087175;28;43455;-68
2023/08/22 00:32:48;;;;;;;1.30;1.30;;;25.50;78.60;;;;;;5080500;28;43640;-68
2023/08/22 00:35:16;;;;;;;1.50;1.50;;;25.50;78.80;;;;;;5086915;28;43389;-69
2023/08/22 00:37:44;;;;;;;1.60;1.60;;;25.40;78.90;;;;;;5087627;28;43408;-69
2023/08/22 00:40:13;;;;;;;1.50;1.50;;;25.40;79.00;;;;;;5086413;28;43419;-69
2023/08/22 00:42:41;;;;;;;1.50;1.50;;;25.40;79.10;;;;;;5083139;27;43627;-69
2023/08/22 00:45:11;;;;;;;1.42;1.42;;;25.40;79.10;;;;;;5083813;28;44907;-70
2023/08/22 00:47:39;;;;;;;1.40;1.40;;;25.40;79.30;;;;;;5080704;28;43491;-69
2023/08/22 00:50:10;;;;;;;1.45;1.45;;;25.40;79.10;;;;;;5088416;28;43509;-68
2023/08/22 00:52:38;;;;;;;1.67;1.67;;;25.50;78.70;;;;;;5083071;27;44072;-70
2023/08/22 00:55:07;;;;;;;1.35;1.35;;;25.60;78.20;;;;;;5085221;28;43474;-69
2023/08/22 00:57:36;;;;;;;1.50;1.50;;;25.70;77.90;;;;;;5102750;27;44005;-69
2023/08/22 01:00:10;;;;;;;1.40;1.40;;;25.70;77.80;;;;;;5085698;27;44198;-71
2023/08/22 01:02:47;;;;;;;1.15;1.15;;;25.70;78.00;;;;;;5094267;22;43828;31
2023/08/22 01:05:17;;;;;;;1.50;1.50;;;25.60;78.20;;;;;;4963515;28;43464;-79
2023/08/22 01:07:47;;;;;;;1.27;1.27;;;25.60;78.30;;;;;;4971413;28;43466;-77
2023/08/22 01:10:19;;;;;;;1.65;1.60;;;25.60;78.50;;;;;;4968011;28;43354;-78
2023/08/22 01:12:52;;;;;;;1.38;1.38;;;25.50;78.60;;;;;;4970017;28;43845;-78
2023/08/22 01:15:24;;;;;;;1.30;1.30;;;25.50;78.80;;;;;;4955810;28;45051;-77
2023/08/22 01:17:53;;;;;;;1.40;1.40;;;25.50;78.80;;;;;;4971223;28;43444;-74
2023/08/22 01:20:22;;;;;;;1.30;1.30;;;25.50;78.90;;;;;;4971675;28;43563;-76
2023/08/22 01:22:52;;;;;;;1.50;1.50;;;25.40;78.90;;;;;;4967209;28;45985;-77
2023/08/22 01:25:20;;;;;;;1.30;1.30;;;25.40;79.10;;;;;;4972552;28;43449;-76
2023/08/22 01:27:55;;;;;;;1.30;1.30;;;25.40;79.10;;;;;;4959518;28;43493;-74
2023/08/22 01:30:26;;;;;;;1.35;1.35;;;25.40;79.20;;;;;;4967120;28;43869;-76
2023/08/22 01:32:54;;;;;;;1.35;1.35;;;25.40;79.20;;;;;;4957756;28;45957;-78
2023/08/22 01:35:22;;;;;;;1.50;1.50;;;25.30;79.30;;;;;;4951079;28;45071;-78
2023/08/22 01:37:52;;;;;;;1.35;1.35;;;25.30;79.30;;;;;;4937728;28;43405;-77
2023/08/22 01:40:20;;;;;;;1.45;1.45;;;25.40;79.00;;;;;;4972697;28;43513;-78
2023/08/22 01:42:49;;;;;;;1.60;1.60;;;25.50;78.50;;;;;;4967587;28;44027;-79
2023/08/22 01:45:18;;;;;;;1.30;1.30;;;25.70;78.10;;;;;;4951170;28;43487;-78
2023/08/22 01:47:46;;;;;;;1.20;1.20;;;25.70;77.80;;;;;;4969627;28;43472;-78
2023/08/22 01:50:14;;;;;;;1.52;1.52;;;25.70;77.80;;;;;;4970192;28;43437;-78
2023/08/22 01:52:42;;;;;;;1.52;1.52;;;25.70;77.90;;;;;;4969274;28;45669;-76
2023/08/22 01:55:13;;;;;;;1.55;1.55;;;25.60;78.10;;;;;;4971340;28;43481;-78
2023/08/22 01:57:41;;;;;;;1.40;1.40;;;25.60;78.20;;;;;;4971772;28;43467;-78
2023/08/22 02:00:10;;;;;;;1.33;1.33;;;25.60;78.40;;;;;;4973353;28;43550;-78
2023/08/22 02:02:41;;;;;;;1.40;1.40;;;25.50;78.50;;;;;;4972195;28;43495;-79
2023/08/22 02:05:09;;;;;;;1.30;1.30;;;25.50;79.40;;;;;;4985928;28;43455;-78
2023/08/22 02:07:38;;;;;;;1.38;1.38;;;25.50;78.60;;;;;;4988921;28;43517;-78
2023/08/22 02:10:08;;;;;;;1.40;1.40;;;25.60;78.30;;;;;;4990620;28;43453;-77
2023/08/22 02:12:37;;;;;;;1.38;1.38;;;25.70;77.90;;;;;;4989175;28;45578;-78
2023/08/22 02:15:07;;;;;;;1.40;1.40;;;25.70;77.70;;;;;;4990694;28;43431;-78
2023/08/22 02:17:35;;;;;;;1.30;1.30;;;25.70;77.70;;;;;;5000273;28;43485;-78
2023/08/22 02:20:04;;;;;;;1.30;1.30;;;25.70;78.10;;;;;;4993341;28;43442;-77
2023/08/22 02:22:32;;;;;;;1.40;1.40;;;25.60;78.20;;;;;;4972748;28;46339;-75
2023/08/22 02:25:00;;;;;;;1.30;1.30;;;25.50;78.30;;;;;;4987466;28;43537;-77
2023/08/22 02:27:28;;;;;;;1.33;1.33;;;25.50;78.40;;;;;;4970005;28;43460;-77
2023/08/22 02:29:58;;;;;;;1.30;1.30;;;25.50;78.60;;;;;;4990558;28;43983;-78
2023/08/22 02:32:26;;;;;;;1.48;1.48;;;25.50;78.80;;;;;;4988687;28;43607;-79
2023/08/22 02:34:54;;;;;;;1.42;1.42;;;25.40;78.80;;;;;;4985267;28;44691;-81
2023/08/22 02:37:23;;;;;;;1.58;1.48;;;25.40;78.90;;;;;;4991124;28;43516;-75
2023/08/22 02:39:51;;;;;;;1.52;1.52;;;25.40;78.90;;;;;;4987948;28;43594;-79
2023/08/22 02:42:19;;;;;;;1.30;1.30;;;25.40;79.10;;;;;;4987700;28;44116;-78
2023/08/22 02:44:47;;;;;;;1.40;1.40;;;25.40;79.00;;;;;;4977992;28;44297;-76
2023/08/22 02:47:17;;;;;;;1.30;1.30;;;25.50;78.80;;;;;;4983135;28;43682;-75
2023/08/22 02:49:45;;;;;;;1.30;1.30;;;25.60;78.20;;;;;;4992577;28;43524;-78
2023/08/22 02:52:13;;;;;;;1.52;1.38;;;25.70;78.00;;;;;;4995188;28;43590;-79
2023/08/22 02:54:42;;;;;;;1.30;1.30;;;25.70;77.90;;;;;;4991646;28;45316;-78
2023/08/22 02:57:10;;;;;;;1.35;1.35;;;25.70;78.10;;;;;;4974715;28;43521;-78
2023/08/22 02:59:38;;;;;;;1.48;1.48;;;25.60;78.40;;;;;;4970795;28;43913;-79
2023/08/22 03:02:06;;;;;;;1.30;1.30;;;25.50;78.30;;;;;;4990622;28;45866;-79
2023/08/22 03:04:37;;;;;;;1.30;1.30;;;25.50;78.40;;;;;;4969004;28;44425;-78
2023/08/22 03:07:05;;;;;;;1.40;1.40;;;25.50;78.60;;;;;;4957059;28;43895;-78
2023/08/22 03:09:33;;;;;;;1.50;1.50;;;25.50;78.80;;;;;;4973044;28;43576;-79
2023/08/22 03:12:02;;;;;;;1.30;1.30;;;25.40;78.80;;;;;;4957686;28;45808;-78
2023/08/22 03:14:30;;;;;;;1.10;1.10;;;25.40;78.90;;;;;;4958463;28;44708;-79
2023/08/22 03:16:58;;;;;;;1.30;1.30;;;25.40;79.00;;;;;;4953116;28;43856;-78
2023/08/22 03:19:26;;;;;;;1.30;1.30;;;25.40;79.10;;;;;;4969961;28;43477;-78
2023/08/22 03:22:01;;;;;;;1.20;1.20;;;25.30;79.00;;;;;;4970149;28;44068;-78
2023/08/22 03:24:30;;;;;;;1.42;1.42;;;25.40;78.90;;;;;;4954873;28;44410;-77
2023/08/22 03:26:59;;;;;;;1.40;1.40;;;25.50;78.50;;;;;;4967495;28;44533;-78
2023/08/22 03:29:27;;;;;;;1.30;1.30;;;25.60;78.00;;;;;;4967078;28;43611;-78
2023/08/22 03:31:56;;;;;;;1.20;1.20;;;25.70;77.90;;;;;;4972898;28;43620;-78
2023/08/22 03:34:26;;;;;;;1.20;1.20;;;25.70;78.00;;;;;;4965087;28;45867;-78
2023/08/22 03:36:54;;;;;;;1.40;1.40;;;25.60;78.20;;;;;;4989156;28;43977;-77
2023/08/22 03:39:23;;;;;;;1.30;1.30;;;25.60;78.30;;;;;;4989784;28;43668;-79
2023/08/22 03:41:52;;;;;;;1.10;1.10;;;25.50;78.30;;;;;;4972597;28;45724;-78
2023/08/22 03:44:22;;;;;;;1.30;1.30;;;25.50;78.50;;;;;;4987598;28;43457;-78
2023/08/22 03:46:50;;;;;;;1.25;1.25;;;25.50;78.80;;;;;;4987718;28;43503;-78
2023/08/22 03:49:32;;;;;;;1.38;1.38;;;25.40;78.80;;;;;;4991087;28;43654;-78
2023/08/22 03:52:01;;;;;;;1.45;1.35;;;25.50;78.60;;;;;;4987715;28;45813;-78
2023/08/22 03:54:31;;;;;;;1.10;1.10;;;25.50;78.30;;;;;;4971848;28;44519;-79
2023/08/22 03:56:59;;;;;;;1.42;1.40;;;25.70;78.00;;;;;;4978224;28;43477;-79
2023/08/22 03:59:28;;;;;;;1.30;1.30;;;25.70;77.80;;;;;;4975041;28;43561;-79
2023/08/22 04:01:56;;;;;;;1.58;1.45;;;25.70;77.90;;;;;;4982724;28;45888;-78
2023/08/22 04:04:25;;;;;;;2.20;1.35;;;25.60;78.10;;;;;;4974270;28;44032;-78
2023/08/22 04:06:53;;;;;;;1.50;1.50;;;25.60;78.20;;;;;;4991570;28;43381;-78
2023/08/22 04:09:21;;;;;;;1.30;1.30;;;25.50;78.20;;;;;;4993092;28;43459;-78
2023/08/22 04:11:50;;;;;;;1.20;1.20;;;25.50;79.10;;;;;;4978581;28;45942;-78
2023/08/22 04:14:18;;;;;;;1.40;1.40;;;25.50;78.50;;;;;;4969415;28;44927;-78
2023/08/22 04:16:46;;;;;;;1.50;1.48;;;25.50;78.80;;;;;;4989830;28;43465;-78
2023/08/22 04:19:14;;;;;;;1.40;1.40;;;25.40;78.70;;;;;;4987996;28;43546;-79
2023/08/22 04:21:42;;;;;;;1.38;1.38;;;25.40;78.70;;;;;;4974863;28;46093;-77
2023/08/22 04:24:12;;;;;;;1.40;1.40;;;25.40;78.90;;;;;;4988657;28;45124;-78
2023/08/22 04:26:42;;;;;;;1.40;1.40;;;25.40;79.10;;;;;;4977793;28;43570;-79
2023/08/22 04:29:12;;;;;;;1.30;1.30;;;25.30;79.00;;;;;;4991726;28;43493;-78
2023/08/22 04:31:40;;;;;;;1.40;1.40;;;25.40;78.90;;;;;;4985610;28;45858;-78
2023/08/22 04:34:08;;;;;;;1.40;1.40;;;25.50;78.50;;;;;;4986416;28;43436;-79
2023/08/22 04:36:44;;;;;;;1.40;1.40;;;25.60;78.00;;;;;;4987474;28;44695;-79
2023/08/22 04:39:12;;;;;;;1.30;1.30;;;25.70;77.70;;;;;;4971296;28;44380;-79
2023/08/22 04:41:43;;;;;;;1.40;1.40;;;25.70;77.60;;;;;;4987306;28;44098;-79
2023/08/22 04:44:35;;;;;;;1.40;1.40;;;25.70;77.90;;;;;;4995695;28;43494;-78
2023/08/22 04:47:03;;;;;;;1.30;1.30;;;25.60;78.00;;;;;;4972834;28;43872;-78
2023/08/22 04:49:31;;;;;;;1.50;1.50;;;25.60;78.00;;;;;;4988731;28;43600;-77
2023/08/22 04:52:00;;;;;;;1.17;1.17;;;25.60;78.20;;;;;;4975470;28;45965;-79
2023/08/22 04:54:28;;;;;;;1.40;1.40;;;25.50;78.50;;;;;;4993840;28;44887;-79
2023/08/22 04:56:56;;;;;;;1.20;1.20;;;25.50;78.60;;;;;;4970033;28;43443;-78
2023/08/22 04:59:24;;;;;;;1.20;1.20;;;25.50;78.60;;;;;;4972214;28;43480;-78
2023/08/22 05:01:54;;;;;;;1.40;1.40;;;25.50;78.70;;;;;;4976181;28;45636;-78
2023/08/22 05:04:22;;;;;;;1.30;1.30;;;25.40;78.80;;;;;;4970977;28;45111;-77
2023/08/22 05:06:50;;;;;;;1.17;1.17;;;25.40;78.90;;;;;;4973230;28;43876;-79
2023/08/22 05:09:18;;;;;;;1.35;1.35;;;25.40;78.90;;;;;;4974140;28;43878;-79
2023/08/22 05:11:46;;;;;;;1.17;1.17;;;25.40;78.90;;;;;;4970320;28;45924;-77
2023/08/22 05:14:16;;;;;;;1.20;1.20;;;25.40;79.00;;;;;;4974047;28;44977;-77
2023/08/22 05:16:44;;;;;;;1.27;1.27;;;25.30;79.00;;;;;;4984328;28;43516;-78
2023/08/22 05:19:14;;;;;;;1.40;1.40;;;25.30;79.00;;;;;;4988633;28;43972;-78
2023/08/22 05:21:42;;;;;;;1.42;1.42;;;25.40;78.80;;;;;;4978608;28;45972;-78
2023/08/22 05:24:10;;;;;;;1.50;1.40;;;25.50;78.40;;;;;;4972533;28;45189;-78
2023/08/22 05:26:39;;;;;;;1.20;1.20;;;25.60;77.90;;;;;;4994087;28;44014;-77
2023/08/22 05:29:07;;;;;;;1.50;1.25;;;25.70;77.50;;;;;;4996915;28;43559;-76
2023/08/22 05:31:35;;;;;;;1.80;1.52;;;25.70;77.40;;;;;;4995540;28;45564;-80
2023/08/22 05:34:05;;;;;;;1.70;1.60;;;25.70;77.50;;;;;;4986943;28;44883;-82
2023/08/22 05:36:34;;;;;;;1.65;1.40;;;25.60;77.80;;;;;;4977262;28;43577;-78
2023/08/22 05:39:04;;;;;;;3.05;1.63;;;25.60;77.70;;;;;;4974204;28;43555;-75
2023/08/22 05:41:32;;;;;;;1.73;1.70;;;25.50;77.60;;;;;;4991950;28;45625;-77
2023/08/22 05:44:01;;;;;;;1.98;1.80;;;25.50;77.90;;;;;;4997166;28;44705;-75
2023/08/22 05:46:29;;;;;;;4.22;1.70;;;25.40;78.10;;;;;;5000943;28;43442;-76
2023/08/22 05:48:58;;;;;;;5.00;2.03;;;25.40;78.10;;;;;;5004966;28;43641;-77
2023/08/22 05:51:27;;;;;;;2.42;2.30;;;25.40;78.20;;;;;;4992112;28;46270;-76
2023/08/22 05:53:57;;;;;;;2.13;2.03;;;25.40;78.30;;;;;;5004386;28;43595;-76
2023/08/22 05:56:25;;;;;;;3.00;2.10;;;25.40;78.50;;;;;;5001375;28;43510;-76
2023/08/22 05:58:53;;;;;;;3.03;1.90;;;25.40;78.60;;;;;;5009629;28;43457;-76
2023/08/22 06:01:21;;;;;;;1.90;1.83;;;25.50;78.40;;;;;;5009875;28;45671;-77
2023/08/22 06:03:49;;;;;;;2.47;1.95;;;25.60;77.90;;;;;;5014427;28;44791;-76
2023/08/22 06:06:17;;;;;;;1.95;1.83;;;25.70;77.40;;;;;;5017699;28;43294;-76
2023/08/22 06:08:46;;;;;;;2.10;1.92;;;25.70;77.20;;;;;;5005024;28;43637;-75
2023/08/22 06:11:15;;;;;;;3.25;1.90;;;25.60;77.20;;;;;;4996615;28;44054;-76
2023/08/22 06:13:43;;;;;;;2.60;2.17;;;25.60;77.70;;;;;;4994134;28;43490;-77
2023/08/22 06:16:12;;;;;;;1.90;1.90;;;25.50;77.80;;;;;;4995716;28;43553;-75
2023/08/22 06:18:40;;;;;;;2.03;2.00;;;25.50;77.80;;;;;;4989418;28;43576;-74
2023/08/22 06:21:08;;;;;;;1.90;1.90;;;25.50;77.90;;;;;;4991636;28;45044;-76
2023/08/22 06:23:36;;;;;;;2.42;2.22;;;25.40;78.10;;;;;;5009130;28;43638;-76
2023/08/22 06:26:04;;;;;;;2.15;2.15;;;25.40;78.30;;;;;;5011861;28;43422;-75
2023/08/22 06:28:34;;;;;;;1.80;1.80;;;25.40;78.30;;;;;;5006447;28;43425;-77
2023/08/22 06:31:02;;;;;;;2.30;2.20;;;25.30;78.20;;;;;;5006476;28;43598;-77
2023/08/22 06:33:32;;;;;;;3.35;2.30;;;25.30;78.40;;;;;;4993579;28;44629;-75
2023/08/22 06:36:01;;;;;;;2.10;2.10;;;25.30;78.60;;;;;;5008080;28;43442;-75
2023/08/22 06:38:30;;;;;;;1.90;1.90;;;25.40;78.60;;;;;;5004897;28;43655;-78
2023/08/22 06:40:58;;;;;;;2.10;1.90;;;25.50;78.10;;;;;;5008118;28;44259;-79
2023/08/22 06:43:26;;;;;;;1.90;1.90;;;25.60;77.60;;;;;;5005582;28;43833;-75
2023/08/22 06:45:58;;;;;;;2.20;2.20;;;25.70;77.10;;;;;;4994357;28;43521;-76
2023/08/22 06:48:26;;;;;;;1.88;1.88;;;25.70;76.90;;;;;;5001575;28;43479;-78
2023/08/22 06:51:09;;;;;;;2.40;2.30;;;25.70;77.10;;;;;;4985689;28;43589;-79
2023/08/22 06:53:37;;;;;;;1.77;1.77;;;25.60;77.50;;;;;;4970661;28;44632;-77
2023/08/22 06:56:05;;;;;;;2.33;2.22;;;25.50;77.50;;;;;;4990336;28;43941;-78
2023/08/22 06:58:33;;;;;;;2.30;2.30;;;25.50;77.60;;;;;;4985100;28;43524;-76
2023/08/22 07:01:05;;;;;;;2.10;2.10;;;25.50;77.60;;;;;;4970776;28;45339;-77
2023/08/22 07:03:33;;;;;;;2.30;2.30;;;25.40;78.00;;;;;;4983879;28;43953;-76
2023/08/22 07:06:02;;;;;;;1.90;1.90;;;25.40;78.10;;;;;;4992207;28;44028;-77
2023/08/22 07:08:30;;;;;;;2.05;2.05;;;25.40;78.20;;;;;;4987153;28;43458;-75
2023/08/22 07:11:02;;;;;;;2.35;2.28;;;25.30;78.10;;;;;;4986954;28;43800;-77
2023/08/22 07:13:30;;;;;;;2.17;2.10;;;25.30;78.40;;;;;;4990017;28;43683;-76
2023/08/22 07:15:58;;;;;;;2.10;2.00;;;25.30;78.60;;;;;;4986809;28;43805;-76
2023/08/22 07:18:28;;;;;;;2.30;2.30;;;25.40;78.40;;;;;;4987706;28;43444;-76
2023/08/22 07:20:56;;;;;;;2.28;2.22;;;25.50;77.90;;;;;;4986138;28;44084;-78
2023/08/22 07:23:24;;;;;;;2.30;2.17;;;25.60;77.50;;;;;;4971870;28;44009;-78
2023/08/22 07:25:52;;;;;;;2.10;2.10;;;25.70;78.00;;;;;;4986989;28;43481;-76
2023/08/22 07:28:20;;;;;;;1.92;1.92;;;25.60;77.10;;;;;;4985313;28;43489;-77
2023/08/22 07:30:49;;;;;;;2.47;2.30;;;25.60;77.30;;;;;;4985995;28;44027;-78
2023/08/22 07:33:17;;;;;;;2.03;2.03;;;25.50;77.60;;;;;;4985124;28;43919;-76
2023/08/22 07:35:47;;;;;;;2.30;2.30;;;25.50;77.70;;;;;;4985679;28;43453;-76
2023/08/22 07:38:15;;;;;;;2.10;2.10;;;25.50;77.90;;;;;;4982299;28;44021;-79
2023/08/22 07:40:43;;;;;;;2.10;2.00;;;25.40;78.60;;;;;;4986259;28;44370;-78
2023/08/22 07:43:12;;;;;;;2.10;2.10;;;25.30;78.20;;;;;;4987945;28;44363;-75
2023/08/22 07:45:40;;;;;;;2.10;2.10;;;25.30;78.30;;;;;;4968321;28;43983;-77
2023/08/22 07:48:08;;;;;;;2.25;2.15;;;25.30;78.30;;;;;;4973286;28;44810;-78
2023/08/22 07:50:36;;;;;;;2.17;2.17;;;25.30;78.30;;;;;;4986279;28;45420;-78
2023/08/22 07:53:06;;;;;;;2.10;2.10;;;25.30;78.60;;;;;;4970008;28;44292;-78
2023/08/22 07:55:34;;;;;;;2.20;2.10;;;25.30;78.70;;;;;;4987542;28;43631;-76
2023/08/22 07:58:03;;;;;;;2.28;2.17;;;25.30;78.60;;;;;;4968427;28;43546;-76
2023/08/22 08:00:31;;;;;;;2.20;2.10;;;25.30;78.60;;;;;;4987029;28;44049;-77
2023/08/22 08:02:59;;;;;;;2.60;2.40;;;25.30;78.80;;;;;;4989638;28;44741;-76
2023/08/22 08:05:27;;;;;;;2.10;2.10;;;25.20;78.80;;;;;;5012487;28;43474;-77
2023/08/22 08:07:55;;;;;;;2.10;2.10;;;25.30;78.60;;;;;;5006983;28;45493;-78
2023/08/22 08:10:25;;;;;;;2.30;2.20;;;25.40;78.10;;;;;;5006257;28;43956;-77
2023/08/22 08:12:53;;;;;;;1.98;1.98;;;25.60;77.70;;;;;;4985301;28;44965;-77
2023/08/22 08:15:21;;;;;;;2.10;2.10;;;25.60;77.40;;;;;;5006782;28;43448;-77
2023/08/22 08:17:49;;;;;;;2.22;2.22;;;25.60;77.40;;;;;;5016512;28;43583;-79
2023/08/22 08:20:17;;;;;;;2.05;2.05;;;25.50;77.50;;;;;;5020619;28;43618;-79
2023/08/22 08:22:45;;;;;;;2.10;2.10;;;25.50;77.80;;;;;;5007411;28;43990;-79
2023/08/22 08:25:14;;;;;;;2.10;2.10;;;25.50;77.90;;;;;;5026165;28;43385;-76
2023/08/22 08:27:44;;;;;;;1.92;1.92;;;25.40;78.00;;;;;;5000148;28;43493;-77
2023/08/22 08:30:17;;;;;;;2.25;2.08;;;25.40;78.10;;;;;;5023171;28;44294;-78
2023/08/22 08:32:47;;;;;;;1.90;1.90;;;25.30;78.30;;;;;;5017364;28;43445;-76
2023/08/22 08:35:16;;;;;;;2.10;2.10;;;25.30;78.30;;;;;;5022026;28;43457;-76
2023/08/22 08:37:47;;;;;;;1.75;1.75;;;25.30;78.40;;;;;;5017600;28;43444;-78
2023/08/22 08:40:15;;;;;;;1.98;1.98;;;25.30;78.50;;;;;;5011874;28;45456;-76
2023/08/22 08:42:44;;;;;;;2.40;2.35;;;25.30;78.70;;;;;;5015555;28;43925;-76
2023/08/22 08:45:13;;;;;;;2.15;2.00;;;25.30;78.70;;;;;;4999182;28;43402;-77
2023/08/22 08:47:41;;;;;;;2.20;2.20;;;25.40;78.30;;;;;;5013378;28;43502;-78
2023/08/22 08:50:10;;;;;;;1.90;1.90;;;25.50;77.90;;;;;;5008591;28;44110;-75
2023/08/22 08:52:38;;;;;;;2.00;2.00;;;25.60;77.50;;;;;;5015297;28;43663;-77
2023/08/22 08:55:07;;;;;;;2.10;2.03;;;25.60;77.40;;;;;;5004125;28;43604;-77
2023/08/22 08:57:35;;;;;;;2.28;2.28;;;25.60;77.50;;;;;;5010887;28;43985;-77
2023/08/22 09:00:06;;;;;;;2.20;2.20;;;25.50;77.70;;;;;;4994777;28;45310;-77
2023/08/22 09:02:35;;;;;;;1.92;1.88;;;25.40;77.80;;;;;;5006661;28;43591;-77
2023/08/22 09:05:04;;;;;;;2.17;2.10;;;25.40;77.90;;;;;;5010783;28;43412;-76
2023/08/22 09:07:32;;;;;;;2.20;2.20;;;25.40;78.10;;;;;;5005800;28;44074;-75
2023/08/22 09:10:02;;;;;;;2.45;2.25;;;25.30;78.20;;;;;;5005098;28;45670;-78
2023/08/22 09:12:32;;;;;;;1.80;1.80;;;25.30;78.40;;;;;;5006904;28;43489;-76
2023/08/22 09:15:12;;;;;;;2.00;2.00;;;25.30;78.50;;;;;;5021978;28;43452;-81
2023/08/22 09:17:42;;;;;;;2.00;2.00;;;25.30;78.60;;;;;;5002041;28;43595;-80
2023/08/22 09:20:11;;;;;;;2.00;2.00;;;25.30;78.70;;;;;;5006838;28;45643;-77
2023/08/22 09:22:39;;;;;;;2.05;2.05;;;25.20;78.70;;;;;;5007309;28;43829;-78
2023/08/22 09:25:08;;;;;;;2.25;2.25;;;25.30;78.70;;;;;;5008758;28;43399;-76
2023/08/22 09:27:38;;;;;;;1.92;1.92;;;25.40;78.30;;;;;;5009813;28;43524;-79
2023/08/22 09:30:08;;;;;;;2.05;2.05;;;25.50;77.90;;;;;;5016195;28;44090;-77
2023/08/22 09:32:38;;;;;;;2.03;2.03;;;25.60;77.60;;;;;;5013568;28;45022;-76
2023/08/22 09:35:07;;;;;;;1.92;1.88;;;25.60;77.50;;;;;;5002859;28;43548;-77
2023/08/22 09:37:36;;;;;;;2.00;2.00;;;25.50;77.60;;;;;;5005423;28;43621;-75
2023/08/22 09:40:09;;;;;;;3.70;2.00;;;25.50;77.90;;;;;;4989198;28;45980;-79
2023/08/22 09:42:39;;;;;;;2.65;1.98;;;25.40;77.90;;;;;;5006235;28;43494;-76
2023/08/22 09:45:10;;;;;;;1.80;1.80;;;25.40;78.10;;;;;;5013682;28;43475;-76
2023/08/22 09:47:42;;;;;;;2.08;1.90;;;25.40;78.30;;;;;;5007428;28;43957;-79
2023/08/22 09:50:12;;;;;;;2.20;2.10;;;25.30;78.40;;;;;;4989039;28;45649;-76
2023/08/22 09:52:40;;;;;;;1.88;1.88;;;25.30;78.40;;;;;;4989238;28;44534;-77
2023/08/22 09:55:08;;;;;;;2.22;2.10;;;25.30;78.60;;;;;;5007192;28;43543;-76
2023/08/22 09:57:36;;;;;;;1.80;1.80;;;25.30;78.70;;;;;;4993795;28;44550;-78
2023/08/22 10:00:07;;;;;;;1.80;1.80;;;25.30;78.80;;;;;;5012250;28;43867;-77
2023/08/22 10:02:42;;;;;;;2.15;1.90;;;25.30;78.80;;;;;;5004333;28;43587;-78
2023/08/22 10:05:10;;;;;;;2.00;2.00;;;25.30;78.60;;;;;;4970336;28;43946;-77
2023/08/22 10:07:39;;;;;;;2.03;2.03;;;25.40;78.20;;;;;;4974853;28;43481;-78
2023/08/22 10:10:08;;;;;;;2.25;1.95;;;25.50;77.80;;;;;;4981862;28;43871;-77
2023/08/22 10:12:36;;;;;;;2.33;2.03;;;25.60;77.40;;;;;;4972180;28;44958;-78
2023/08/22 10:15:07;;;;;;;1.70;1.70;;;25.60;77.30;;;;;;4992433;28;43393;-76
2023/08/22 10:17:36;;;;;;;1.80;1.80;;;25.50;77.50;;;;;;4999408;28;43451;-77
2023/08/22 10:20:07;;;;;;;1.98;1.88;;;25.50;77.70;;;;;;4990385;28;44113;-77
2023/08/22 10:22:35;;;;;;;2.10;2.10;;;25.50;77.70;;;;;;4991003;28;43493;-78
2023/08/22 10:25:04;;;;;;;2.00;2.00;;;25.50;77.90;;;;;;4999792;28;43390;-76
2023/08/22 10:27:33;;;;;;;1.88;1.88;;;25.40;77.80;;;;;;5001263;28;43392;-76
2023/08/22 10:30:19;;;;;;;2.10;1.90;;;25.40;78.10;;;;;;4991065;28;45789;-79
2023/08/22 10:33:04;;;;;;;1.98;1.98;;;25.30;78.00;;;;;;4985766;28;44585;-79
2023/08/22 10:36:04;;;;;;;1.88;1.88;;;25.30;78.30;;;;;;4985098;28;43392;-77
2023/08/22 10:38:52;;;;;;;1.90;1.90;;;25.30;78.30;;;;;;4991324;28;43421;-75
2023/08/22 10:41:23;;;;;;;2.00;2.00;;;25.30;78.40;;;;;;4990093;28;43685;-76
2023/08/22 10:43:53;;;;;;;2.20;2.10;;;25.30;78.30;;;;;;4973481;28;44996;-78
2023/08/22 10:46:23;;;;;;;2.00;1.90;;;25.40;78.10;;;;;;4991784;28;44052;-78
2023/08/22 10:48:53;;;;;;;1.98;1.98;;;25.40;77.90;;;;;;4976758;28;43560;-78
2023/08/22 10:51:25;;;;;;;2.00;2.00;;;25.50;77.90;;;;;;4987914;28;44152;-77
2023/08/22 10:53:55;;;;;;;1.63;1.60;;;25.40;78.00;;;;;;4993520;28;43469;-77
2023/08/22 10:56:25;;;;;;;1.85;1.85;;;25.40;77.90;;;;;;4978201;28;43513;-76
2023/08/22 10:58:57;;;;;;;1.55;1.55;;;25.40;77.90;;;;;;4995083;28;43508;-77
2023/08/22 11:01:27;;;;;;;2.03;2.00;;;25.40;78.10;;;;;;4996073;28;43593;-77
2023/08/22 11:03:56;;;;;;;1.77;1.77;;;25.40;78.50;;;;;;4981054;28;45103;-79
2023/08/22 11:06:26;;;;;;;1.90;1.90;;;25.40;78.40;;;;;;5001623;28;43396;-76
2023/08/22 11:08:54;;;;;;;1.80;1.80;;;25.40;78.20;;;;;;4997208;28;43628;-77
2023/08/22 11:11:22;;;;;;;2.05;1.83;;;25.40;78.10;;;;;;4996320;28;44323;-77
2023/08/22 11:13:50;;;;;;;2.20;2.10;;;25.50;77.80;;;;;;4993448;28;44771;-75
2023/08/22 11:16:19;;;;;;;2.20;2.10;;;25.50;77.90;;;;;;4978885;28;44050;-75
2023/08/22 11:18:48;;;;;;;1.80;1.80;;;25.50;78.20;;;;;;4982572;28;43485;-77
2023/08/22 11:21:16;;;;;;;1.88;1.88;;;25.50;78.00;;;;;;4997558;28;45286;-77
2023/08/22 11:23:46;;;;;;;1.60;1.60;;;25.50;78.00;;;;;;4999246;28;43459;-78
2023/08/22 11:26:14;;;;;;;1.75;1.75;;;25.50;78.30;;;;;;4978984;28;43434;-77
2023/08/22 11:28:42;;;;;;;1.73;1.70;;;25.40;78.50;;;;;;4998864;28;43477;-77
2023/08/22 11:31:14;;;;;;;1.42;1.42;;;25.40;78.40;;;;;;4989912;28;45734;-76
2023/08/22 11:33:47;;;;;;;1.70;1.70;;;25.40;78.30;;;;;;4991672;28;44644;-75
2023/08/22 11:36:16;;;;;;;1.48;1.48;;;25.40;78.50;;;;;;4994538;28;43410;-77
2023/08/22 11:38:46;;;;;;;1.70;1.70;;;25.40;79.50;;;;;;4998395;28;43958;-78
2023/08/22 11:41:14;;;;;;;1.60;1.60;;;25.30;78.60;;;;;;4979254;28;45306;-78
2023/08/22 11:43:46;;;;;;;1.50;1.50;;;25.30;78.40;;;;;;4990634;28;43422;-77
2023/08/22 11:46:14;;;;;;;1.85;1.85;;;25.40;78.40;;;;;;4999357;28;43486;-79
2023/08/22 11:48:45;;;;;;;1.48;1.48;;;25.50;78.10;;;;;;4980436;28;43641;-76
2023/08/22 11:51:20;;;;;;;1.70;1.60;;;25.60;77.50;;;;;;4997768;28;43609;-77
2023/08/22 11:53:50;;;;;;;2.22;2.13;;;25.60;77.20;;;;;;4993561;28;44036;-78
2023/08/22 11:56:19;;;;;;;1.98;1.88;;;25.60;77.10;;;;;;4995827;28;44103;-78
2023/08/22 11:58:52;;;;;;;3.65;2.70;;;25.60;77.00;;;;;;4987086;28;43467;-78
2023/08/22 12:01:23;;;;;;;4.13;2.58;;;25.50;77.40;;;;;;4996660;28;46019;-77
2023/08/22 12:03:56;;;;;;;5.60;3.13;;;25.50;77.50;;;;;;4994673;28;43514;-79
2023/08/22 12:06:25;;;;;;;7.35;3.58;;;25.50;77.50;;;;;;4996499;28;43530;-79
2023/08/22 12:09:00;;;;;;;13.32;4.85;;;25.40;77.80;;;;;;4997722;28;43558;-78
2023/08/22 12:11:29;;;;;;;11.55;4.85;;;25.40;78.10;;;;;;4977590;28;45990;-79
2023/08/22 12:13:57;;;;;;;11.38;5.18;;;25.40;78.20;;;;;;4988403;28;43437;-77
2023/08/22 12:16:26;;;;;;;14.15;5.28;;;25.30;78.30;;;;;;4993108;28;43998;-77
2023/08/22 12:18:55;;;;;;;12.23;6.07;;;25.30;78.40;;;;;;4996669;28;43700;-76
2023/08/22 12:21:23;;;;;;;17.65;6.35;;;25.30;78.50;;;;;;4988685;28;43613;-77
2023/08/22 12:23:51;;;;;;;15.98;6.22;;;25.30;78.50;;;;;;4994201;28;43485;-77
2023/08/22 12:26:20;;;;;;;19.30;6.88;;;25.30;78.30;;;;;;5001461;28;44053;-76
2023/08/22 12:28:48;;;;;;;23.75;7.38;;;25.40;78.00;;;;;;4978408;28;43604;-78
2023/08/22 12:31:16;;;;;;;17.55;7.13;;;25.50;77.60;;;;;;4989436;28;45733;-76
2023/08/22 12:33:45;;;;;;;13.80;6.35;;;25.60;77.50;;;;;;4983276;28;44952;-76
2023/08/22 12:36:13;;;;;;;18.00;6.57;;;25.60;77.70;;;;;;4990758;28;43441;-76
2023/08/22 12:38:41;;;;;;;17.25;6.50;;;25.50;77.80;;;;;;4996659;28;43448;-79
2023/08/22 12:41:11;;;;;;;16.98;7.03;;;25.50;77.50;;;;;;4996401;28;44119;-77
2023/08/22 12:43:41;;;;;;;16.52;6.53;;;25.50;77.90;;;;;;4996700;28;43669;-78
2023/08/22 12:46:09;;;;;;;16.50;6.47;;;25.50;78.20;;;;;;4975988;28;43457;-77
2023/08/22 12:48:38;;;;;;;16.88;6.72;;;25.40;78.20;;;;;;4999775;28;43591;-77
2023/08/22 12:51:06;;;;;;;17.50;7.10;;;25.40;78.30;;;;;;5000131;28;45907;-77
2023/08/22 12:53:34;;;;;;;16.35;6.65;;;25.40;78.90;;;;;;5003536;28;43873;-78
2023/08/22 12:56:03;;;;;;;16.15;7.35;;;25.50;78.00;;;;;;5001060;28;43425;-77